sensor_id;sensor_type;location;lat;lon;timestamp;P1;durP1;ratioP1;P2;durP2;ratioP2
20209;SDS011;10264;53.178;5.840;2023-11-19T00:01:25;41.57;;;11.70;;
20209;SDS011;10264;53.178;5.840;2023-11-19T00:04:12;48.60;;;11.20;;
20209;SDS011;10264;53.178;5.840;2023-11-19T00:07:00;48.87;;;9.90;;
20209;SDS011;10264;53.178;5.840;2023-11-19T00:09:36;49.30;;;10.13;;
20209;SDS011;10264;53.178;5.840;2023-11-19T00:12:09;45.00;;;9.77;;
20209;SDS011;10264;53.178;5.840;2023-11-19T00:14:40;40.77;;;9.87;;
20209;SDS011;10264;53.178;5.840;2023-11-19T00:17:30;38.10;;;10.30;;
20209;SDS011;10264;53.178;5.840;2023-11-19T00:20:01;50.40;;;10.03;;
20209;SDS011;10264;53.178;5.840;2023-11-19T00:22:55;48.67;;;10.20;;
20209;SDS011;10264;53.178;5.840;2023-11-19T00:25:27;44.00;;;9.57;;
20209;SDS011;10264;53.178;5.840;2023-11-19T00:28:04;45.40;;;10.70;;
20209;SDS011;10264;53.178;5.840;2023-11-19T00:30:34;46.97;;;12.43;;
20209;SDS011;10264;53.178;5.840;2023-11-19T00:33:07;35.10;;;10.43;;
20209;SDS011;10264;53.178;5.840;2023-11-19T00:35:38;51.70;;;10.57;;
20209;SDS011;10264;53.178;5.840;2023-11-19T00:38:07;42.87;;;10.90;;
20209;SDS011;10264;53.178;5.840;2023-11-19T00:40:40;50.43;;;11.10;;
20209;SDS011;10264;53.178;5.840;2023-11-19T00:43:14;48.50;;;11.10;;
20209;SDS011;10264;53.178;5.840;2023-11-19T00:45:56;51.13;;;10.73;;
20209;SDS011;10264;53.178;5.840;2023-11-19T00:48:31;38.73;;;10.13;;
20209;SDS011;10264;53.178;5.840;2023-11-19T00:51:19;54.13;;;10.17;;
20209;SDS011;10264;53.178;5.840;2023-11-19T00:53:50;43.37;;;10.17;;
20209;SDS011;10264;53.178;5.840;2023-11-19T00:56:22;44.63;;;10.03;;
20209;SDS011;10264;53.178;5.840;2023-11-19T00:58:59;42.80;;;9.80;;
20209;SDS011;10264;53.178;5.840;2023-11-19T01:01:28;48.57;;;10.37;;
20209;SDS011;10264;53.178;5.840;2023-11-19T01:04:01;47.33;;;9.27;;
20209;SDS011;10264;53.178;5.840;2023-11-19T01:06:39;49.63;;;10.17;;
20209;SDS011;10264;53.178;5.840;2023-11-19T01:09:15;50.17;;;9.60;;
20209;SDS011;10264;53.178;5.840;2023-11-19T01:12:20;41.67;;;9.57;;
20209;SDS011;10264;53.178;5.840;2023-11-19T01:14:54;42.67;;;9.37;;
20209;SDS011;10264;53.178;5.840;2023-11-19T01:17:23;50.20;;;9.60;;
20209;SDS011;10264;53.178;5.840;2023-11-19T01:19:50;55.37;;;10.23;;
20209;SDS011;10264;53.178;5.840;2023-11-19T01:22:26;45.47;;;8.93;;
20209;SDS011;10264;53.178;5.840;2023-11-19T01:24:59;51.87;;;11.67;;
20209;SDS011;10264;53.178;5.840;2023-11-19T01:27:35;46.87;;;10.07;;
20209;SDS011;10264;53.178;5.840;2023-11-19T01:30:04;51.23;;;9.73;;
20209;SDS011;10264;53.178;5.840;2023-11-19T01:32:50;51.30;;;11.07;;
20209;SDS011;10264;53.178;5.840;2023-11-19T01:35:33;46.63;;;11.27;;
20209;SDS011;10264;53.178;5.840;2023-11-19T01:38:17;48.07;;;9.93;;
20209;SDS011;10264;53.178;5.840;2023-11-19T01:40:46;42.17;;;9.80;;
20209;SDS011;10264;53.178;5.840;2023-11-19T01:43:35;55.50;;;10.73;;
20209;SDS011;10264;53.178;5.840;2023-11-19T01:46:32;44.37;;;8.93;;
20209;SDS011;10264;53.178;5.840;2023-11-19T01:49:02;52.53;;;9.73;;
20209;SDS011;10264;53.178;5.840;2023-11-19T01:52:03;52.83;;;9.67;;
20209;SDS011;10264;53.178;5.840;2023-11-19T01:54:49;50.83;;;9.10;;
20209;SDS011;10264;53.178;5.840;2023-11-19T01:57:24;54.07;;;11.03;;
20209;SDS011;10264;53.178;5.840;2023-11-19T02:00:00;52.33;;;9.83;;
20209;SDS011;10264;53.178;5.840;2023-11-19T02:02:38;48.10;;;10.07;;
20209;SDS011;10264;53.178;5.840;2023-11-19T02:05:15;50.70;;;11.10;;
20209;SDS011;10264;53.178;5.840;2023-11-19T02:07:57;54.80;;;10.13;;
20209;SDS011;10264;53.178;5.840;2023-11-19T02:10:42;47.13;;;10.83;;
20209;SDS011;10264;53.178;5.840;2023-11-19T02:13:12;45.00;;;10.50;;
20209;SDS011;10264;53.178;5.840;2023-11-19T02:15:40;58.63;;;12.27;;
20209;SDS011;10264;53.178;5.840;2023-11-19T02:18:32;44.93;;;9.57;;
20209;SDS011;10264;53.178;5.840;2023-11-19T02:20:59;59.00;;;10.50;;
20209;SDS011;10264;53.178;5.840;2023-11-19T02:23:38;50.63;;;10.10;;
20209;SDS011;10264;53.178;5.840;2023-11-19T02:26:28;43.73;;;9.43;;
20209;SDS011;10264;53.178;5.840;2023-11-19T02:29:04;47.73;;;10.23;;
20209;SDS011;10264;53.178;5.840;2023-11-19T02:31:48;48.20;;;10.17;;
20209;SDS011;10264;53.178;5.840;2023-11-19T02:34:19;46.67;;;10.00;;
20209;SDS011;10264;53.178;5.840;2023-11-19T02:37:04;53.13;;;9.07;;
20209;SDS011;10264;53.178;5.840;2023-11-19T02:39:39;49.83;;;10.13;;
20209;SDS011;10264;53.178;5.840;2023-11-19T02:42:16;53.10;;;9.63;;
20209;SDS011;10264;53.178;5.840;2023-11-19T02:45:17;44.27;;;10.17;;
20209;SDS011;10264;53.178;5.840;2023-11-19T02:48:05;53.20;;;9.90;;
20209;SDS011;10264;53.178;5.840;2023-11-19T02:50:33;54.97;;;9.30;;
20209;SDS011;10264;53.178;5.840;2023-11-19T02:53:11;41.17;;;9.23;;
20209;SDS011;10264;53.178;5.840;2023-11-19T02:55:41;54.73;;;10.30;;
20209;SDS011;10264;53.178;5.840;2023-11-19T02:58:20;51.07;;;9.07;;
20209;SDS011;10264;53.178;5.840;2023-11-19T03:00:54;51.33;;;9.73;;
20209;SDS011;10264;53.178;5.840;2023-11-19T03:03:22;57.77;;;10.53;;
20209;SDS011;10264;53.178;5.840;2023-11-19T03:05:52;60.87;;;10.37;;
20209;SDS011;10264;53.178;5.840;2023-11-19T03:08:42;50.63;;;9.60;;
20209;SDS011;10264;53.178;5.840;2023-11-19T03:11:19;61.77;;;11.43;;
20209;SDS011;10264;53.178;5.840;2023-11-19T03:13:56;53.30;;;10.37;;
20209;SDS011;10264;53.178;5.840;2023-11-19T03:16:33;54.20;;;11.80;;
20209;SDS011;10264;53.178;5.840;2023-11-19T03:19:22;52.10;;;10.73;;
20209;SDS011;10264;53.178;5.840;2023-11-19T03:22:00;58.57;;;10.77;;
20209;SDS011;10264;53.178;5.840;2023-11-19T03:24:34;53.73;;;10.73;;
20209;SDS011;10264;53.178;5.840;2023-11-19T03:27:04;52.80;;;12.17;;
20209;SDS011;10264;53.178;5.840;2023-11-19T03:29:50;50.23;;;10.57;;
20209;SDS011;10264;53.178;5.840;2023-11-19T03:32:30;56.13;;;10.90;;
20209;SDS011;10264;53.178;5.840;2023-11-19T03:35:06;53.17;;;10.23;;
20209;SDS011;10264;53.178;5.840;2023-11-19T03:37:39;50.67;;;10.10;;
20209;SDS011;10264;53.178;5.840;2023-11-19T03:40:13;61.20;;;12.10;;
20209;SDS011;10264;53.178;5.840;2023-11-19T03:42:51;49.97;;;9.53;;
20209;SDS011;10264;53.178;5.840;2023-11-19T03:45:39;47.20;;;9.57;;
20209;SDS011;10264;53.178;5.840;2023-11-19T03:48:06;58.43;;;9.13;;
20209;SDS011;10264;53.178;5.840;2023-11-19T03:50:35;56.83;;;11.23;;
20209;SDS011;10264;53.178;5.840;2023-11-19T03:53:08;60.80;;;10.43;;
20209;SDS011;10264;53.178;5.840;2023-11-19T03:55:39;47.27;;;9.43;;
20209;SDS011;10264;53.178;5.840;2023-11-19T03:58:09;49.37;;;10.53;;
20209;SDS011;10264;53.178;5.840;2023-11-19T04:00:55;50.83;;;9.63;;
20209;SDS011;10264;53.178;5.840;2023-11-19T04:03:33;57.07;;;10.13;;
20209;SDS011;10264;53.178;5.840;2023-11-19T04:06:16;53.30;;;10.90;;
20209;SDS011;10264;53.178;5.840;2023-11-19T04:08:46;56.23;;;9.83;;
20209;SDS011;10264;53.178;5.840;2023-11-19T04:11:29;50.17;;;11.17;;
20209;SDS011;10264;53.178;5.840;2023-11-19T04:14:03;47.53;;;9.47;;
20209;SDS011;10264;53.178;5.840;2023-11-19T04:16:36;52.27;;;11.23;;
20209;SDS011;10264;53.178;5.840;2023-11-19T04:19:03;52.90;;;10.40;;
20209;SDS011;10264;53.178;5.840;2023-11-19T04:21:40;51.27;;;11.10;;
20209;SDS011;10264;53.178;5.840;2023-11-19T04:24:59;38.73;;;9.63;;
20209;SDS011;10264;53.178;5.840;2023-11-19T04:27:33;56.93;;;11.67;;
20209;SDS011;10264;53.178;5.840;2023-11-19T04:30:12;48.70;;;9.53;;
20209;SDS011;10264;53.178;5.840;2023-11-19T04:32:43;52.33;;;9.57;;
20209;SDS011;10264;53.178;5.840;2023-11-19T04:35:22;53.07;;;10.97;;
20209;SDS011;10264;53.178;5.840;2023-11-19T04:37:48;54.37;;;9.97;;
20209;SDS011;10264;53.178;5.840;2023-11-19T04:40:15;49.30;;;10.23;;
20209;SDS011;10264;53.178;5.840;2023-11-19T04:42:50;43.63;;;9.37;;
20209;SDS011;10264;53.178;5.840;2023-11-19T04:45:24;53.33;;;9.83;;
20209;SDS011;10264;53.178;5.840;2023-11-19T04:47:52;57.90;;;10.63;;
20209;SDS011;10264;53.178;5.840;2023-11-19T04:50:20;50.60;;;10.63;;
20209;SDS011;10264;53.178;5.840;2023-11-19T04:52:49;42.20;;;10.07;;
20209;SDS011;10264;53.178;5.840;2023-11-19T04:55:27;44.67;;;10.33;;
20209;SDS011;10264;53.178;5.840;2023-11-19T04:58:05;51.17;;;9.73;;
20209;SDS011;10264;53.178;5.840;2023-11-19T05:00:36;37.30;;;9.40;;
20209;SDS011;10264;53.178;5.840;2023-11-19T05:03:10;51.10;;;10.77;;
20209;SDS011;10264;53.178;5.840;2023-11-19T05:05:40;54.97;;;10.13;;
20209;SDS011;10264;53.178;5.840;2023-11-19T05:08:41;54.00;;;9.37;;
20209;SDS011;10264;53.178;5.840;2023-11-19T05:11:11;37.73;;;8.47;;
20209;SDS011;10264;53.178;5.840;2023-11-19T05:13:42;40.00;;;8.70;;
20209;SDS011;10264;53.178;5.840;2023-11-19T05:16:09;43.10;;;10.37;;
20209;SDS011;10264;53.178;5.840;2023-11-19T05:18:43;49.13;;;10.50;;
20209;SDS011;10264;53.178;5.840;2023-11-19T05:21:09;49.10;;;9.77;;
20209;SDS011;10264;53.178;5.840;2023-11-19T05:26:42;47.60;;;9.70;;
20209;SDS011;10264;53.178;5.840;2023-11-19T05:29:23;40.23;;;8.93;;
20209;SDS011;10264;53.178;5.840;2023-11-19T05:32:03;43.10;;;10.07;;
20209;SDS011;10264;53.178;5.840;2023-11-19T05:34:31;53.40;;;10.47;;
20209;SDS011;10264;53.178;5.840;2023-11-19T05:37:18;46.00;;;11.57;;
20209;SDS011;10264;53.178;5.840;2023-11-19T05:39:52;49.97;;;11.07;;
20209;SDS011;10264;53.178;5.840;2023-11-19T05:42:19;45.27;;;10.10;;
20209;SDS011;10264;53.178;5.840;2023-11-19T05:44:47;49.20;;;10.97;;
20209;SDS011;10264;53.178;5.840;2023-11-19T05:47:44;61.17;;;10.23;;
20209;SDS011;10264;53.178;5.840;2023-11-19T05:59:46;47.17;;;9.90;;
20209;SDS011;10264;53.178;5.840;2023-11-19T06:02:22;50.67;;;10.43;;
20209;SDS011;10264;53.178;5.840;2023-11-19T06:05:10;51.87;;;11.13;;
20209;SDS011;10264;53.178;5.840;2023-11-19T06:07:44;45.77;;;10.90;;
20209;SDS011;10264;53.178;5.840;2023-11-19T06:10:21;50.13;;;10.40;;
20209;SDS011;10264;53.178;5.840;2023-11-19T06:12:52;52.27;;;10.00;;
20209;SDS011;10264;53.178;5.840;2023-11-19T06:15:30;42.97;;;11.37;;
20209;SDS011;10264;53.178;5.840;2023-11-19T06:21:47;50.20;;;9.97;;
20209;SDS011;10264;53.178;5.840;2023-11-19T06:34:13;37.63;;;8.97;;
20209;SDS011;10264;53.178;5.840;2023-11-19T06:37:05;42.63;;;9.40;;
20209;SDS011;10264;53.178;5.840;2023-11-19T06:43:04;37.53;;;8.57;;
20209;SDS011;10264;53.178;5.840;2023-11-19T06:45:31;44.73;;;8.93;;
20209;SDS011;10264;53.178;5.840;2023-11-19T07:16:07;34.43;;;8.43;;
20209;SDS011;10264;53.178;5.840;2023-11-19T07:22:20;49.80;;;11.10;;
20209;SDS011;10264;53.178;5.840;2023-11-19T07:27:58;43.23;;;8.83;;
20209;SDS011;10264;53.178;5.840;2023-11-19T07:33:45;48.10;;;9.10;;
20209;SDS011;10264;53.178;5.840;2023-11-19T07:45:57;42.13;;;9.57;;
20209;SDS011;10264;53.178;5.840;2023-11-19T07:54:42;40.43;;;9.17;;
20209;SDS011;10264;53.178;5.840;2023-11-19T08:00:19;32.67;;;8.33;;
20209;SDS011;10264;53.178;5.840;2023-11-19T08:03:01;37.47;;;8.73;;
20209;SDS011;10264;53.178;5.840;2023-11-19T08:09:05;34.53;;;7.57;;
20209;SDS011;10264;53.178;5.840;2023-11-19T08:14:55;35.27;;;8.53;;
20209;SDS011;10264;53.178;5.840;2023-11-19T08:20:33;38.33;;;7.67;;
20209;SDS011;10264;53.178;5.840;2023-11-19T08:33:00;35.97;;;8.90;;
20209;SDS011;10264;53.178;5.840;2023-11-19T08:42:10;31.77;;;8.40;;
20209;SDS011;10264;53.178;5.840;2023-11-19T08:47:45;31.33;;;9.00;;
20209;SDS011;10264;53.178;5.840;2023-11-19T08:50:19;36.83;;;8.33;;
20209;SDS011;10264;53.178;5.840;2023-11-19T08:52:49;40.83;;;9.20;;
20209;SDS011;10264;53.178;5.840;2023-11-19T08:55:21;39.03;;;9.20;;
20209;SDS011;10264;53.178;5.840;2023-11-19T09:01:17;45.10;;;9.57;;
20209;SDS011;10264;53.178;5.840;2023-11-19T09:03:47;39.83;;;9.03;;
20209;SDS011;10264;53.178;5.840;2023-11-19T09:06:17;41.97;;;9.43;;
20209;SDS011;10264;53.178;5.840;2023-11-19T09:08:45;42.47;;;9.07;;
20209;SDS011;10264;53.178;5.840;2023-11-19T09:14:47;41.37;;;9.10;;
20209;SDS011;10264;53.178;5.840;2023-11-19T09:17:20;54.53;;;9.33;;
20209;SDS011;10264;53.178;5.840;2023-11-19T09:32:51;35.53;;;9.13;;
20209;SDS011;10264;53.178;5.840;2023-11-19T09:41:53;31.77;;;9.33;;
20209;SDS011;10264;53.178;5.840;2023-11-19T09:44:26;36.60;;;9.40;;
20209;SDS011;10264;53.178;5.840;2023-11-19T09:46:54;32.40;;;9.40;;
20209;SDS011;10264;53.178;5.840;2023-11-19T09:53:03;28.03;;;8.00;;
20209;SDS011;10264;53.178;5.840;2023-11-19T09:59:11;34.83;;;10.30;;
20209;SDS011;10264;53.178;5.840;2023-11-19T10:01:44;36.90;;;9.87;;
20209;SDS011;10264;53.178;5.840;2023-11-19T10:04:16;37.60;;;9.70;;
20209;SDS011;10264;53.178;5.840;2023-11-19T10:06:43;37.73;;;9.00;;
20209;SDS011;10264;53.178;5.840;2023-11-19T10:09:12;39.87;;;9.60;;
20209;SDS011;10264;53.178;5.840;2023-11-19T10:11:53;36.93;;;9.83;;
20209;SDS011;10264;53.178;5.840;2023-11-19T10:17:28;36.27;;;9.83;;
20209;SDS011;10264;53.178;5.840;2023-11-19T10:19:54;30.73;;;10.33;;
20209;SDS011;10264;53.178;5.840;2023-11-19T10:22:22;33.97;;;9.43;;
20209;SDS011;10264;53.178;5.840;2023-11-19T10:24:55;30.80;;;10.33;;
20209;SDS011;10264;53.178;5.840;2023-11-19T10:27:31;29.47;;;10.20;;
20209;SDS011;10264;53.178;5.840;2023-11-19T10:30:01;30.00;;;11.20;;
20209;SDS011;10264;53.178;5.840;2023-11-19T10:32:30;24.10;;;9.57;;
20209;SDS011;10264;53.178;5.840;2023-11-19T10:35:10;27.70;;;9.73;;
20209;SDS011;10264;53.178;5.840;2023-11-19T10:37:55;32.17;;;10.60;;
20209;SDS011;10264;53.178;5.840;2023-11-19T10:40:26;27.57;;;10.67;;
20209;SDS011;10264;53.178;5.840;2023-11-19T10:43:08;45.90;;;10.90;;
20209;SDS011;10264;53.178;5.840;2023-11-19T10:45:38;52.90;;;12.60;;
20209;SDS011;10264;53.178;5.840;2023-11-19T10:48:21;32.97;;;9.23;;
20209;SDS011;10264;53.178;5.840;2023-11-19T10:50:54;35.57;;;10.00;;
20209;SDS011;10264;53.178;5.840;2023-11-19T10:53:27;32.60;;;10.30;;
20209;SDS011;10264;53.178;5.840;2023-11-19T10:56:05;28.53;;;10.20;;
20209;SDS011;10264;53.178;5.840;2023-11-19T11:01:21;31.27;;;10.93;;
20209;SDS011;10264;53.178;5.840;2023-11-19T11:04:13;34.17;;;10.97;;
20209;SDS011;10264;53.178;5.840;2023-11-19T11:06:46;31.27;;;9.80;;
20209;SDS011;10264;53.178;5.840;2023-11-19T11:09:17;38.10;;;11.70;;
20209;SDS011;10264;53.178;5.840;2023-11-19T11:11:48;41.60;;;11.80;;
20209;SDS011;10264;53.178;5.840;2023-11-19T11:14:27;32.80;;;10.40;;
20209;SDS011;10264;53.178;5.840;2023-11-19T11:16:56;28.97;;;9.63;;
20209;SDS011;10264;53.178;5.840;2023-11-19T11:19:27;31.47;;;9.43;;
20209;SDS011;10264;53.178;5.840;2023-11-19T11:22:05;36.50;;;10.00;;
20209;SDS011;10264;53.178;5.840;2023-11-19T11:27:25;36.93;;;10.03;;
20209;SDS011;10264;53.178;5.840;2023-11-19T11:30:23;28.70;;;9.03;;
20209;SDS011;10264;53.178;5.840;2023-11-19T11:32:59;42.37;;;9.80;;
20209;SDS011;10264;53.178;5.840;2023-11-19T11:38:28;28.33;;;10.00;;
20209;SDS011;10264;53.178;5.840;2023-11-19T11:43:55;30.13;;;9.20;;
20209;SDS011;10264;53.178;5.840;2023-11-19T11:49:10;25.47;;;9.20;;
20209;SDS011;10264;53.178;5.840;2023-11-19T11:57:10;32.40;;;10.40;;
20209;SDS011;10264;53.178;5.840;2023-11-19T12:02:24;29.57;;;10.43;;
20209;SDS011;10264;53.178;5.840;2023-11-19T12:04:54;28.67;;;9.13;;
20209;SDS011;10264;53.178;5.840;2023-11-19T12:07:25;35.50;;;10.03;;
20209;SDS011;10264;53.178;5.840;2023-11-19T12:10:07;40.73;;;11.17;;
20209;SDS011;10264;53.178;5.840;2023-11-19T12:12:36;28.00;;;10.23;;
20209;SDS011;10264;53.178;5.840;2023-11-19T12:15:14;29.30;;;10.40;;
20209;SDS011;10264;53.178;5.840;2023-11-19T12:17:48;26.47;;;9.77;;
20209;SDS011;10264;53.178;5.840;2023-11-19T12:20:19;27.67;;;9.13;;
20209;SDS011;10264;53.178;5.840;2023-11-19T12:22:58;23.83;;;9.83;;
20209;SDS011;10264;53.178;5.840;2023-11-19T12:25:43;28.37;;;10.27;;
20209;SDS011;10264;53.178;5.840;2023-11-19T12:28:15;30.20;;;10.47;;
20209;SDS011;10264;53.178;5.840;2023-11-19T12:30:44;25.67;;;11.27;;
20209;SDS011;10264;53.178;5.840;2023-11-19T12:33:12;29.47;;;9.77;;
20209;SDS011;10264;53.178;5.840;2023-11-19T12:35:41;32.67;;;10.50;;
20209;SDS011;10264;53.178;5.840;2023-11-19T12:38:24;31.37;;;9.70;;
20209;SDS011;10264;53.178;5.840;2023-11-19T12:41:09;30.53;;;9.23;;
20209;SDS011;10264;53.178;5.840;2023-11-19T12:44:08;27.97;;;9.63;;
20209;SDS011;10264;53.178;5.840;2023-11-19T12:46:37;35.63;;;10.87;;
20209;SDS011;10264;53.178;5.840;2023-11-19T12:49:03;31.73;;;12.00;;
20209;SDS011;10264;53.178;5.840;2023-11-19T12:51:30;35.77;;;10.43;;
20209;SDS011;10264;53.178;5.840;2023-11-19T12:54:01;25.00;;;9.70;;
20209;SDS011;10264;53.178;5.840;2023-11-19T12:59:34;29.20;;;10.43;;
20209;SDS011;10264;53.178;5.840;2023-11-19T13:02:02;30.77;;;10.17;;
20209;SDS011;10264;53.178;5.840;2023-11-19T13:04:32;32.17;;;10.67;;
20209;SDS011;10264;53.178;5.840;2023-11-19T13:07:06;23.93;;;10.27;;
20209;SDS011;10264;53.178;5.840;2023-11-19T13:09:58;30.93;;;10.27;;
20209;SDS011;10264;53.178;5.840;2023-11-19T13:12:31;20.20;;;9.83;;
20209;SDS011;10264;53.178;5.840;2023-11-19T13:15:04;30.40;;;12.07;;
20209;SDS011;10264;53.178;5.840;2023-11-19T13:17:41;25.03;;;10.00;;
20209;SDS011;10264;53.178;5.840;2023-11-19T13:20:18;30.87;;;10.33;;
20209;SDS011;10264;53.178;5.840;2023-11-19T13:22:59;31.80;;;10.13;;
20209;SDS011;10264;53.178;5.840;2023-11-19T13:25:38;32.00;;;10.90;;
20209;SDS011;10264;53.178;5.840;2023-11-19T13:28:16;27.43;;;10.10;;
20209;SDS011;10264;53.178;5.840;2023-11-19T13:30:43;28.30;;;8.60;;
20209;SDS011;10264;53.178;5.840;2023-11-19T13:33:13;30.07;;;8.80;;
20209;SDS011;10264;53.178;5.840;2023-11-19T13:35:40;33.27;;;9.00;;
20209;SDS011;10264;53.178;5.840;2023-11-19T13:38:09;27.00;;;8.10;;
20209;SDS011;10264;53.178;5.840;2023-11-19T13:40:38;27.17;;;8.17;;
20209;SDS011;10264;53.178;5.840;2023-11-19T13:43:16;33.17;;;8.60;;
20209;SDS011;10264;53.178;5.840;2023-11-19T13:45:43;30.50;;;8.07;;
20209;SDS011;10264;53.178;5.840;2023-11-19T13:48:15;24.33;;;8.70;;
20209;SDS011;10264;53.178;5.840;2023-11-19T13:50:44;32.07;;;8.90;;
20209;SDS011;10264;53.178;5.840;2023-11-19T13:53:13;29.23;;;9.33;;
20209;SDS011;10264;53.178;5.840;2023-11-19T13:55:42;33.77;;;8.63;;
20209;SDS011;10264;53.178;5.840;2023-11-19T13:58:16;31.93;;;9.43;;
20209;SDS011;10264;53.178;5.840;2023-11-19T14:00:52;33.67;;;9.47;;
20209;SDS011;10264;53.178;5.840;2023-11-19T14:03:28;29.43;;;8.20;;
20209;SDS011;10264;53.178;5.840;2023-11-19T14:05:59;30.87;;;8.70;;
20209;SDS011;10264;53.178;5.840;2023-11-19T14:08:28;34.37;;;10.67;;
20209;SDS011;10264;53.178;5.840;2023-11-19T14:10:57;31.37;;;8.47;;
20209;SDS011;10264;53.178;5.840;2023-11-19T14:13:37;26.63;;;10.23;;
20209;SDS011;10264;53.178;5.840;2023-11-19T14:16:10;25.17;;;7.93;;
20209;SDS011;10264;53.178;5.840;2023-11-19T14:18:38;23.67;;;7.57;;
20209;SDS011;10264;53.178;5.840;2023-11-19T14:21:09;19.57;;;9.13;;
20209;SDS011;10264;53.178;5.840;2023-11-19T14:23:38;28.03;;;8.13;;
20209;SDS011;10264;53.178;5.840;2023-11-19T14:26:09;25.00;;;7.97;;
20209;SDS011;10264;53.178;5.840;2023-11-19T14:28:35;26.53;;;7.90;;
20209;SDS011;10264;53.178;5.840;2023-11-19T14:31:27;29.20;;;7.73;;
20209;SDS011;10264;53.178;5.840;2023-11-19T14:34:00;28.70;;;8.27;;
20209;SDS011;10264;53.178;5.840;2023-11-19T14:36:27;27.20;;;8.63;;
20209;SDS011;10264;53.178;5.840;2023-11-19T14:39:00;18.80;;;6.93;;
20209;SDS011;10264;53.178;5.840;2023-11-19T14:41:41;25.60;;;7.90;;
20209;SDS011;10264;53.178;5.840;2023-11-19T14:44:20;27.47;;;8.07;;
20209;SDS011;10264;53.178;5.840;2023-11-19T14:46:52;26.37;;;7.70;;
20209;SDS011;10264;53.178;5.840;2023-11-19T14:49:21;32.63;;;10.47;;
20209;SDS011;10264;53.178;5.840;2023-11-19T14:52:03;22.20;;;7.87;;
20209;SDS011;10264;53.178;5.840;2023-11-19T14:54:43;21.47;;;7.47;;
20209;SDS011;10264;53.178;5.840;2023-11-19T14:57:33;21.03;;;8.50;;
20209;SDS011;10264;53.178;5.840;2023-11-19T15:00:13;26.03;;;7.17;;
20209;SDS011;10264;53.178;5.840;2023-11-19T15:02:43;22.90;;;7.90;;
20209;SDS011;10264;53.178;5.840;2023-11-19T15:05:30;23.87;;;7.30;;
20209;SDS011;10264;53.178;5.840;2023-11-19T15:08:10;25.00;;;7.60;;
20209;SDS011;10264;53.178;5.840;2023-11-19T15:10:41;21.23;;;7.53;;
20209;SDS011;10264;53.178;5.840;2023-11-19T15:13:25;23.00;;;7.90;;
20209;SDS011;10264;53.178;5.840;2023-11-19T15:15:58;29.17;;;7.50;;
20209;SDS011;10264;53.178;5.840;2023-11-19T15:18:38;21.57;;;7.30;;
20209;SDS011;10264;53.178;5.840;2023-11-19T15:21:11;23.00;;;6.90;;
20209;SDS011;10264;53.178;5.840;2023-11-19T15:23:50;21.40;;;6.63;;
20209;SDS011;10264;53.178;5.840;2023-11-19T15:26:19;30.10;;;6.63;;
20209;SDS011;10264;53.178;5.840;2023-11-19T15:28:50;24.77;;;6.30;;
20209;SDS011;10264;53.178;5.840;2023-11-19T15:31:17;21.63;;;6.07;;
20209;SDS011;10264;53.178;5.840;2023-11-19T15:33:51;18.53;;;6.20;;
20209;SDS011;10264;53.178;5.840;2023-11-19T15:36:21;24.47;;;7.67;;
20209;SDS011;10264;53.178;5.840;2023-11-19T15:38:47;25.00;;;9.17;;
20209;SDS011;10264;53.178;5.840;2023-11-19T15:41:22;26.30;;;7.27;;
20209;SDS011;10264;53.178;5.840;2023-11-19T15:43:57;33.10;;;8.50;;
20209;SDS011;10264;53.178;5.840;2023-11-19T15:46:27;30.67;;;8.33;;
20209;SDS011;10264;53.178;5.840;2023-11-19T15:49:08;26.13;;;8.53;;
20209;SDS011;10264;53.178;5.840;2023-11-19T15:51:55;27.50;;;8.30;;
20209;SDS011;10264;53.178;5.840;2023-11-19T15:54:23;28.73;;;9.03;;
20209;SDS011;10264;53.178;5.840;2023-11-19T15:56:51;26.13;;;8.73;;
20209;SDS011;10264;53.178;5.840;2023-11-19T15:59:18;23.07;;;7.20;;
20209;SDS011;10264;53.178;5.840;2023-11-19T16:01:49;33.37;;;7.07;;
20209;SDS011;10264;53.178;5.840;2023-11-19T16:04:25;31.43;;;9.27;;
20209;SDS011;10264;53.178;5.840;2023-11-19T16:06:52;30.53;;;8.03;;
20209;SDS011;10264;53.178;5.840;2023-11-19T16:09:24;33.47;;;8.80;;
20209;SDS011;10264;53.178;5.840;2023-11-19T16:11:52;29.40;;;7.77;;
20209;SDS011;10264;53.178;5.840;2023-11-19T16:14:24;31.73;;;6.80;;
20209;SDS011;10264;53.178;5.840;2023-11-19T16:16:54;32.97;;;9.30;;
20209;SDS011;10264;53.178;5.840;2023-11-19T16:19:24;35.57;;;8.57;;
20209;SDS011;10264;53.178;5.840;2023-11-19T16:22:10;34.47;;;8.03;;
20209;SDS011;10264;53.178;5.840;2023-11-19T16:24:49;34.23;;;7.57;;
20209;SDS011;10264;53.178;5.840;2023-11-19T16:27:40;26.03;;;7.40;;
20209;SDS011;10264;53.178;5.840;2023-11-19T16:30:09;27.93;;;6.77;;
20209;SDS011;10264;53.178;5.840;2023-11-19T16:32:51;42.10;;;8.13;;
20209;SDS011;10264;53.178;5.840;2023-11-19T16:35:20;34.60;;;7.13;;
20209;SDS011;10264;53.178;5.840;2023-11-19T16:37:55;32.50;;;8.00;;
20209;SDS011;10264;53.178;5.840;2023-11-19T16:40:43;33.63;;;7.13;;
20209;SDS011;10264;53.178;5.840;2023-11-19T16:43:10;33.70;;;7.73;;
20209;SDS011;10264;53.178;5.840;2023-11-19T16:45:52;28.53;;;7.83;;
20209;SDS011;10264;53.178;5.840;2023-11-19T16:48:26;24.37;;;6.63;;
20209;SDS011;10264;53.178;5.840;2023-11-19T16:50:54;23.27;;;7.47;;
20209;SDS011;10264;53.178;5.840;2023-11-19T16:53:25;31.80;;;8.47;;
20209;SDS011;10264;53.178;5.840;2023-11-19T16:55:55;28.70;;;8.90;;
20209;SDS011;10264;53.178;5.840;2023-11-19T16:58:29;33.03;;;10.47;;
20209;SDS011;10264;53.178;5.840;2023-11-19T17:04:15;50.60;;;11.53;;
20209;SDS011;10264;53.178;5.840;2023-11-19T17:06:43;37.40;;;11.43;;
20209;SDS011;10264;53.178;5.840;2023-11-19T17:09:14;44.90;;;9.97;;
20209;SDS011;10264;53.178;5.840;2023-11-19T17:11:43;42.07;;;10.30;;
20209;SDS011;10264;53.178;5.840;2023-11-19T17:14:12;39.20;;;10.17;;
20209;SDS011;10264;53.178;5.840;2023-11-19T17:16:59;46.20;;;10.07;;
20209;SDS011;10264;53.178;5.840;2023-11-19T17:19:46;34.47;;;10.27;;
20209;SDS011;10264;53.178;5.840;2023-11-19T17:22:18;39.43;;;10.00;;
20209;SDS011;10264;53.178;5.840;2023-11-19T17:24:45;44.33;;;9.50;;
20209;SDS011;10264;53.178;5.840;2023-11-19T17:27:16;41.00;;;11.10;;
20209;SDS011;10264;53.178;5.840;2023-11-19T17:32:51;35.07;;;10.77;;
20209;SDS011;10264;53.178;5.840;2023-11-19T17:35:22;40.40;;;11.80;;
20209;SDS011;10264;53.178;5.840;2023-11-19T17:38:14;35.80;;;10.17;;
20209;SDS011;10264;53.178;5.840;2023-11-19T17:40:43;41.63;;;11.20;;
20209;SDS011;10264;53.178;5.840;2023-11-19T17:43:34;37.63;;;10.47;;
20209;SDS011;10264;53.178;5.840;2023-11-19T17:49:21;39.63;;;10.17;;
20209;SDS011;10264;53.178;5.840;2023-11-19T17:52:17;33.83;;;10.57;;
20209;SDS011;10264;53.178;5.840;2023-11-19T17:54:44;33.37;;;9.70;;
20209;SDS011;10264;53.178;5.840;2023-11-19T17:57:11;36.47;;;10.60;;
20209;SDS011;10264;53.178;5.840;2023-11-19T17:59:43;32.97;;;11.10;;
20209;SDS011;10264;53.178;5.840;2023-11-19T18:02:16;30.53;;;9.77;;
20209;SDS011;10264;53.178;5.840;2023-11-19T18:05:04;43.20;;;10.37;;
20209;SDS011;10264;53.178;5.840;2023-11-19T18:07:30;33.13;;;10.43;;
20209;SDS011;10264;53.178;5.840;2023-11-19T18:10:04;45.80;;;15.07;;
20209;SDS011;10264;53.178;5.840;2023-11-19T18:12:37;58.63;;;20.13;;
20209;SDS011;10264;53.178;5.840;2023-11-19T18:15:08;63.47;;;20.23;;
20209;SDS011;10264;53.178;5.840;2023-11-19T18:17:56;45.17;;;17.40;;
20209;SDS011;10264;53.178;5.840;2023-11-19T18:20:28;49.40;;;18.97;;
20209;SDS011;10264;53.178;5.840;2023-11-19T18:23:01;48.83;;;20.00;;